Time;durP1;ratioP1;P1;durP2;ratioP2;P2;SDS_P1;SDS_P2;PMS_P1;PMS_P2;Temp;Humidity;BMP_temperature;BMP_pressure;BME280_temperature;BME280_humidity;BME280_pressure;Samples;Min_cycle;Max_cycle;Signal;HPM_P1;HPM_P2
2022/09/11 00:00:43;;;;;;;3.50;1.83;;;14.50;61.00;;;;;;4955766;28;46345;-65
2022/09/11 00:03:09;;;;;;;4.70;1.47;;;14.50;61.10;;;;;;4952425;28;46230;-64
2022/09/11 00:05:38;;;;;;;3.40;1.50;;;14.50;60.30;;;;;;4956257;28;46370;-65
2022/09/11 00:08:04;;;;;;;7.10;1.77;;;14.40;61.50;;;;;;4954401;28;46484;-65
2022/09/11 00:10:31;;;;;;;3.60;1.60;;;14.40;61.50;;;;;;4950199;28;46357;-65
2022/09/11 00:12:57;;;;;;;8.23;1.47;;;14.40;61.60;;;;;;4954564;28;46534;-65
2022/09/11 00:15:23;;;;;;;6.37;1.60;;;14.40;60.60;;;;;;4952664;28;46312;-65
2022/09/11 00:17:48;;;;;;;7.03;1.63;;;14.40;61.70;;;;;;4953084;28;46724;-65
2022/09/11 00:20:14;;;;;;;3.17;1.77;;;14.40;61.70;;;;;;4955543;28;46498;-65
2022/09/11 00:22:40;;;;;;;5.67;1.70;;;14.40;61.80;;;;;;4954191;28;47887;-65
2022/09/11 00:25:06;;;;;;;5.77;1.77;;;14.40;60.60;;;;;;4950215;28;46515;-66
2022/09/11 00:27:32;;;;;;;4.80;1.60;;;14.50;61.70;;;;;;4952710;28;46740;-64
2022/09/11 00:29:59;;;;;;;9.43;1.73;;;14.40;61.70;;;;;;4951707;28;46782;-66
2022/09/11 00:32:24;;;;;;;5.73;1.70;;;14.40;61.70;;;;;;4955170;28;46640;-65
2022/09/11 00:34:50;;;;;;;4.93;1.70;;;14.40;60.70;;;;;;4950350;28;46427;-65
2022/09/11 00:37:15;;;;;;;3.33;1.60;;;14.40;61.70;;;;;;4953287;28;46298;-65
2022/09/11 00:39:41;;;;;;;2.57;1.60;;;14.40;61.60;;;;;;4952650;28;46453;-65
2022/09/11 00:42:09;;;;;;;5.03;1.40;;;14.50;61.50;;;;;;4954357;28;46388;-65
2022/09/11 00:44:34;;;;;;;4.60;1.77;;;14.50;60.50;;;;;;4953140;28;46403;-65
2022/09/11 00:47:04;;;;;;;3.70;1.27;;;14.50;61.60;;;;;;4955520;28;46380;-65
2022/09/11 00:49:47;;;;;;;4.17;1.40;;;14.50;61.60;;;;;;4954174;28;46415;-65
2022/09/11 00:52:33;;;;;;;7.37;2.10;;;14.40;61.80;;;;;;4953387;28;46481;-65
2022/09/11 00:55:09;;;;;;;3.03;1.40;;;14.30;61.10;;;;;;4953832;28;46525;-65
2022/09/11 00:57:41;;;;;;;6.20;1.57;;;14.30;62.00;;;;;;4954203;28;46441;-65
2022/09/11 01:00:07;;;;;;;6.57;1.70;;;14.30;62.00;;;;;;4966314;28;46356;-65
2022/09/11 01:02:35;;;;;;;3.60;1.70;;;14.30;61.90;;;;;;4954151;28;46652;-65
2022/09/11 01:05:02;;;;;;;12.30;2.17;;;14.40;60.90;;;;;;4966673;28;47403;-65
2022/09/11 01:07:29;;;;;;;6.90;1.70;;;14.40;61.70;;;;;;4950227;28;46391;-65
2022/09/11 01:09:55;;;;;;;4.13;1.60;;;14.50;61.70;;;;;;4952224;28;46004;-65
2022/09/11 01:12:51;;;;;;;7.97;1.70;;;14.50;62.80;;;;;;4955833;28;48047;-65
2022/09/11 01:15:29;;;;;;;5.03;1.60;;;14.50;60.50;;;;;;4954979;28;46462;-65
2022/09/11 01:18:17;;;;;;;5.73;1.60;;;14.50;61.70;;;;;;4951209;28;46347;-66
2022/09/11 01:21:07;;;;;;;6.90;1.73;;;14.50;61.70;;;;;;4953435;28;46317;-65
2022/09/11 01:23:52;;;;;;;5.47;1.70;;;14.50;60.70;;;;;;4952626;28;48000;-65
2022/09/11 01:26:21;;;;;;;5.90;2.10;;;14.50;61.60;;;;;;4953310;28;46438;-65
2022/09/11 01:28:49;;;;;;;3.53;1.70;;;14.50;61.60;;;;;;4951077;28;46462;-65
2022/09/11 01:31:20;;;;;;;5.77;1.60;;;14.50;61.70;;;;;;4956304;28;46355;-65
2022/09/11 01:33:58;;;;;;;4.03;1.67;;;14.50;61.00;;;;;;4953610;28;47041;-65
2022/09/11 01:36:34;;;;;;;2.53;1.57;;;14.50;61.70;;;;;;4953438;28;45870;-64
2022/09/11 01:39:03;;;;;;;6.10;1.97;;;14.50;61.70;;;;;;4956124;28;45951;-64
2022/09/11 01:41:41;;;;;;;6.57;1.90;;;14.60;61.70;;;;;;4956117;28;46662;-65
2022/09/11 01:44:34;;;;;;;5.10;1.73;;;14.50;60.90;;;;;;4957173;28;46282;-65
2022/09/11 01:47:02;;;;;;;5.40;1.93;;;14.50;61.90;;;;;;4957085;28;45815;-65
2022/09/11 01:49:34;;;;;;;3.40;1.50;;;14.50;61.90;;;;;;4954950;28;46440;-65
2022/09/11 01:52:06;;;;;;;4.23;1.83;;;14.50;62.00;;;;;;4955628;28;46387;-65
2022/09/11 01:54:41;;;;;;;9.03;2.27;;;14.50;61.10;;;;;;4959356;28;47231;-65
2022/09/11 01:57:12;;;;;;;7.03;1.93;;;14.50;62.10;;;;;;4953500;28;46436;-65
2022/09/11 01:59:49;;;;;;;4.47;1.50;;;14.40;62.00;;;;;;4957279;28;46353;-65
2022/09/11 02:02:22;;;;;;;6.73;1.50;;;14.50;62.20;;;;;;4955035;28;45913;-65
2022/09/11 02:05:01;;;;;;;7.60;1.60;;;14.50;61.10;;;;;;4954154;28;47347;-65
2022/09/11 02:07:35;;;;;;;4.37;1.80;;;14.50;62.00;;;;;;4955720;28;46313;-65
2022/09/11 02:10:07;;;;;;;4.90;2.03;;;14.50;62.10;;;;;;4959007;28;46348;-65
2022/09/11 02:12:49;;;;;;;9.97;1.83;;;14.50;62.20;;;;;;4954390;28;46340;-66
2022/09/11 02:15:16;;;;;;;7.90;1.70;;;14.50;61.10;;;;;;4956381;28;47443;-65
2022/09/11 02:17:58;;;;;;;6.33;2.00;;;14.50;62.30;;;;;;4953703;28;46444;-65
2022/09/11 02:20:24;;;;;;;5.00;1.60;;;14.50;62.20;;;;;;4952444;28;46379;-66
2022/09/11 02:22:51;;;;;;;3.43;1.40;;;14.50;62.20;;;;;;4953970;28;46404;-65
2022/09/11 02:25:17;;;;;;;4.30;1.50;;;14.40;61.10;;;;;;4953113;28;46554;-65
2022/09/11 02:27:42;;;;;;;4.97;1.70;;;14.50;62.40;;;;;;4956200;28;46684;-65
2022/09/11 02:30:09;;;;;;;4.57;1.77;;;14.40;62.40;;;;;;4953733;28;46460;-65
2022/09/11 02:32:38;;;;;;;6.47;1.77;;;14.50;62.40;;;;;;4953672;28;46576;-65
2022/09/11 02:35:05;;;;;;;8.90;1.70;;;14.50;61.40;;;;;;4959812;28;47545;-65
2022/09/11 02:37:49;;;;;;;4.13;1.53;;;14.40;62.50;;;;;;4954333;28;45813;-65
2022/09/11 02:40:40;;;;;;;5.63;1.70;;;14.50;62.40;;;;;;4954468;28;46488;-65
2022/09/11 02:43:12;;;;;;;2.43;1.40;;;14.50;62.40;;;;;;4957192;28;45804;-64
2022/09/11 02:46:09;;;;;;;7.20;2.17;;;14.50;61.30;;;;;;4953240;28;46965;-64
2022/09/11 02:48:50;;;;;;;4.50;1.77;;;14.50;62.30;;;;;;4956947;28;46412;-65
2022/09/11 02:51:27;;;;;;;6.60;1.70;;;14.50;62.30;;;;;;4950548;28;46452;-65
2022/09/11 02:54:16;;;;;;;6.83;1.37;;;14.50;61.30;;;;;;4953239;28;46338;-65
2022/09/11 02:57:05;;;;;;;3.77;1.80;;;14.50;62.40;;;;;;4963119;28;46328;-65
2022/09/11 02:59:41;;;;;;;4.47;1.73;;;14.50;62.40;;;;;;4957408;28;46277;-64
2022/09/11 03:02:13;;;;;;;4.70;1.67;;;14.50;62.30;;;;;;4958730;28;46579;-65
2022/09/11 03:04:38;;;;;;;4.53;1.90;;;14.50;61.30;;;;;;4956657;28;46455;-65
2022/09/11 03:07:05;;;;;;;5.10;1.80;;;14.50;62.30;;;;;;4953659;28;47272;-65
2022/09/11 03:09:32;;;;;;;5.33;2.10;;;14.50;62.40;;;;;;4953705;28;46794;-65
2022/09/11 03:11:58;;;;;;;4.90;1.93;;;14.50;62.50;;;;;;4954260;28;46305;-65
2022/09/11 03:14:23;;;;;;;5.83;1.53;;;14.40;61.60;;;;;;4954881;28;46349;-65
2022/09/11 03:16:49;;;;;;;7.23;1.60;;;14.40;62.60;;;;;;4955117;28;46427;-65
2022/09/11 03:19:14;;;;;;;4.37;1.67;;;14.40;62.70;;;;;;4952680;28;46339;-65
2022/09/11 03:21:41;;;;;;;3.50;1.43;;;14.40;62.70;;;;;;4952092;28;46317;-65
2022/09/11 03:24:08;;;;;;;10.80;1.50;;;14.40;61.60;;;;;;4955681;28;45889;-65
2022/09/11 03:26:34;;;;;;;2.27;1.40;;;14.40;62.70;;;;;;4953957;28;46857;-65
2022/09/11 03:29:00;;;;;;;3.13;1.70;;;14.40;62.70;;;;;;4952739;28;46311;-65
2022/09/11 03:31:27;;;;;;;4.80;1.80;;;14.50;62.70;;;;;;4953732;28;46264;-65
2022/09/11 03:33:53;;;;;;;3.60;1.60;;;14.50;61.60;;;;;;4957268;28;45874;-65
2022/09/11 03:36:19;;;;;;;5.50;2.03;;;14.50;62.40;;;;;;4951759;28;46698;-65
2022/09/11 03:38:46;;;;;;;8.83;2.13;;;14.50;62.40;;;;;;4951927;28;46411;-65
2022/09/11 03:41:12;;;;;;;2.87;1.80;;;14.50;62.30;;;;;;4953101;28;46656;-65
2022/09/11 03:43:38;;;;;;;6.40;1.60;;;14.50;61.40;;;;;;4953695;28;46408;-65
2022/09/11 03:46:03;;;;;;;7.63;1.33;;;14.50;62.40;;;;;;4953089;28;47111;-65
2022/09/11 03:48:29;;;;;;;9.37;1.97;;;14.50;62.40;;;;;;4953509;28;45848;-65
2022/09/11 03:50:55;;;;;;;7.63;1.80;;;14.50;62.20;;;;;;4952991;28;46780;-66
2022/09/11 03:53:21;;;;;;;10.90;1.87;;;14.50;62.10;;;;;;4955168;28;46729;-65
2022/09/11 03:55:48;;;;;;;6.20;1.60;;;14.50;61.20;;;;;;4951934;28;48133;-65
2022/09/11 03:58:16;;;;;;;5.57;1.77;;;14.50;62.30;;;;;;4955013;28;46418;-66
2022/09/11 04:00:43;;;;;;;3.63;1.30;;;14.50;62.30;;;;;;4951698;28;46466;-66
2022/09/11 04:03:09;;;;;;;8.40;1.67;;;14.50;62.30;;;;;;4955946;28;46615;-65
2022/09/11 04:05:36;;;;;;;3.70;1.30;;;14.50;61.10;;;;;;4954864;28;47086;-65
2022/09/11 04:08:03;;;;;;;8.43;1.90;;;14.60;62.20;;;;;;4955755;28;47021;-65
2022/09/11 04:10:30;;;;;;;4.73;1.83;;;14.60;62.30;;;;;;4953276;28;46364;-65
2022/09/11 04:12:56;;;;;;;4.97;2.17;;;14.60;62.20;;;;;;4953732;28;46354;-65
2022/09/11 04:15:21;;;;;;;6.63;1.87;;;14.60;61.20;;;;;;4953097;28;47312;-64
2022/09/11 04:17:48;;;;;;;5.77;2.13;;;14.60;62.30;;;;;;4953783;28;46376;-64
2022/09/11 04:20:13;;;;;;;5.13;1.67;;;14.50;62.30;;;;;;4953549;28;46424;-64
2022/09/11 04:22:39;;;;;;;5.70;1.97;;;14.40;62.50;;;;;;4953651;28;46752;-64
2022/09/11 04:25:06;;;;;;;5.43;1.90;;;14.40;61.70;;;;;;4950633;28;46401;-64
2022/09/11 04:27:32;;;;;;;9.87;2.10;;;14.40;62.80;;;;;;4952942;28;46622;-64
2022/09/11 04:29:57;;;;;;;9.50;3.07;;;14.40;62.90;;;;;;4953411;28;46410;-65
2022/09/11 04:32:23;;;;;;;7.47;2.03;;;14.40;63.20;;;;;;4951424;28;46499;-64
2022/09/11 04:34:49;;;;;;;3.67;1.93;;;14.30;62.30;;;;;;4954271;28;46506;-64
2022/09/11 04:37:15;;;;;;;5.90;2.20;;;14.30;63.50;;;;;;4950188;28;46412;-64
2022/09/11 04:39:41;;;;;;;5.10;1.80;;;14.20;63.70;;;;;;4954932;28;46339;-65
2022/09/11 04:42:09;;;;;;;4.83;2.00;;;14.20;63.90;;;;;;4949668;28;46230;-65
2022/09/11 04:44:35;;;;;;;8.43;2.80;;;14.20;63.10;;;;;;4955380;28;47247;-64
2022/09/11 04:47:01;;;;;;;6.43;1.77;;;14.20;64.10;;;;;;4954991;28;45916;-64
2022/09/11 04:49:26;;;;;;;7.37;2.20;;;14.20;64.10;;;;;;4965288;28;46456;-64
2022/09/11 04:51:52;;;;;;;4.93;1.73;;;14.20;64.20;;;;;;4955521;28;46515;-64
2022/09/11 04:54:22;;;;;;;4.60;1.90;;;14.10;63.30;;;;;;4952675;28;46396;-64
2022/09/11 04:56:48;;;;;;;4.33;1.73;;;14.20;64.30;;;;;;4954826;28;45779;-65
2022/09/11 04:59:18;;;;;;;5.43;2.10;;;14.20;64.30;;;;;;4957298;28;46520;-65
2022/09/11 05:01:45;;;;;;;5.90;2.00;;;14.20;64.10;;;;;;4957143;28;46234;-65
2022/09/11 05:04:14;;;;;;;5.40;2.00;;;14.20;63.10;;;;;;4961871;28;47013;-65
2022/09/11 05:06:41;;;;;;;4.97;2.00;;;14.30;64.20;;;;;;4960297;28;46435;-65
2022/09/11 05:09:09;;;;;;;3.60;2.03;;;14.20;64.10;;;;;;4959973;28;46464;-65
2022/09/11 05:11:37;;;;;;;10.53;2.00;;;14.30;64.10;;;;;;4961476;28;46372;-65
2022/09/11 05:14:02;;;;;;;4.60;2.20;;;14.30;62.90;;;;;;4971385;28;47276;-65
2022/09/11 05:16:29;;;;;;;6.10;2.17;;;14.30;64.10;;;;;;4958242;28;45777;-65
2022/09/11 05:18:55;;;;;;;5.67;2.03;;;14.30;64.00;;;;;;4959354;28;46396;-65
2022/09/11 05:21:23;;;;;;;4.63;1.90;;;14.40;64.10;;;;;;4962309;28;46617;-65
2022/09/11 05:23:51;;;;;;;3.80;2.07;;;14.40;63.10;;;;;;4958233;28;47229;-65
2022/09/11 05:26:19;;;;;;;2.70;1.40;;;14.40;63.90;;;;;;4957898;28;46311;-65
2022/09/11 05:28:45;;;;;;;4.40;1.70;;;14.50;63.80;;;;;;4958309;28;46880;-65
2022/09/11 05:31:16;;;;;;;4.07;1.83;;;14.50;63.60;;;;;;4957262;28;47319;-65
2022/09/11 05:33:43;;;;;;;5.50;1.97;;;14.50;62.90;;;;;;4959457;28;46574;-65
2022/09/11 05:36:10;;;;;;;3.57;1.73;;;14.50;63.90;;;;;;4959234;28;46437;-65
2022/09/11 05:38:36;;;;;;;6.07;2.00;;;14.50;63.90;;;;;;4956848;28;46740;-65
2022/09/11 05:41:05;;;;;;;9.90;2.30;;;14.50;63.80;;;;;;4959000;28;46384;-66
2022/09/11 05:43:32;;;;;;;5.33;1.73;;;14.50;63.90;;;;;;4955896;28;47167;-65
2022/09/11 05:45:58;;;;;;;5.50;1.67;;;14.60;62.90;;;;;;4959441;28;46412;-65
2022/09/11 05:48:26;;;;;;;3.83;1.70;;;14.60;63.80;;;;;;4957711;28;46232;-65
2022/09/11 05:50:58;;;;;;;4.00;1.60;;;14.70;63.90;;;;;;4958600;28;46476;-65
2022/09/11 05:53:24;;;;;;;3.63;2.00;;;14.70;63.80;;;;;;4959037;28;48160;-65
2022/09/11 05:55:50;;;;;;;5.10;2.33;;;14.70;62.60;;;;;;4960286;28;46467;-65
2022/09/11 05:58:16;;;;;;;5.00;1.80;;;14.80;63.60;;;;;;4961338;28;46340;-65
2022/09/11 06:00:45;;;;;;;8.20;2.30;;;14.80;63.50;;;;;;4959292;28;46390;-65
2022/09/11 06:03:15;;;;;;;5.37;2.10;;;14.80;63.40;;;;;;4959257;28;46600;-65
2022/09/11 06:05:41;;;;;;;5.00;1.80;;;14.80;62.60;;;;;;4973585;28;46488;-65
2022/09/11 06:08:08;;;;;;;5.47;1.80;;;14.80;63.80;;;;;;4957991;28;46456;-66
2022/09/11 06:10:45;;;;;;;5.70;1.83;;;14.80;63.80;;;;;;4957255;28;46415;-65
2022/09/11 06:13:11;;;;;;;3.73;1.80;;;14.80;63.80;;;;;;4956676;28;46396;-65
2022/09/11 06:15:44;;;;;;;6.33;1.93;;;14.80;62.60;;;;;;4974448;28;46309;-65
2022/09/11 06:18:10;;;;;;;5.00;1.80;;;14.90;63.60;;;;;;4959970;28;46285;-65
2022/09/11 06:20:35;;;;;;;4.53;1.83;;;15.00;63.50;;;;;;4957773;28;45940;-65
2022/09/11 06:23:01;;;;;;;3.40;1.67;;;15.00;63.30;;;;;;4958891;28;46787;-65
2022/09/11 06:25:27;;;;;;;8.77;2.10;;;15.10;62.10;;;;;;4959649;28;46566;-65
2022/09/11 06:27:54;;;;;;;5.40;1.60;;;15.10;63.30;;;;;;4958327;28;46301;-65
2022/09/11 06:30:20;;;;;;;4.87;2.43;;;15.10;63.10;;;;;;4955394;28;46393;-65
2022/09/11 06:32:47;;;;;;;5.20;2.07;;;15.20;63.20;;;;;;4955945;28;46585;-65
2022/09/11 06:35:13;;;;;;;3.40;1.50;;;15.20;62.40;;;;;;4957525;28;46980;-65
2022/09/11 06:37:39;;;;;;;4.17;2.10;;;15.20;63.60;;;;;;4954224;28;46528;-65
2022/09/11 06:40:05;;;;;;;5.43;1.97;;;15.20;63.60;;;;;;4970186;28;46297;-65
2022/09/11 06:42:30;;;;;;;7.13;2.10;;;15.30;63.40;;;;;;4954580;28;47242;-65
2022/09/11 06:44:56;;;;;;;3.27;1.70;;;15.40;62.00;;;;;;4954387;28;46506;-65
2022/09/11 06:47:22;;;;;;;8.67;1.97;;;15.50;63.20;;;;;;4952294;28;46615;-65
2022/09/11 06:49:48;;;;;;;7.73;2.10;;;15.60;63.00;;;;;;4955858;28;46653;-65
2022/09/11 06:52:14;;;;;;;5.93;2.10;;;15.60;62.90;;;;;;4957957;28;46407;-65
2022/09/11 06:54:40;;;;;;;3.47;1.70;;;15.90;61.40;;;;;;4954712;28;46400;-65
2022/09/11 06:57:06;;;;;;;5.90;1.63;;;16.00;62.50;;;;;;4955494;28;45846;-65
2022/09/11 06:59:31;;;;;;;4.23;1.50;;;16.20;61.80;;;;;;4956410;28;45925;-65
2022/09/11 07:01:59;;;;;;;5.93;2.00;;;16.20;61.60;;;;;;4954450;28;46976;-65
2022/09/11 07:04:25;;;;;;;2.87;1.63;;;16.00;60.90;;;;;;4956733;28;46671;-65
2022/09/11 07:06:50;;;;;;;6.40;1.77;;;16.00;61.90;;;;;;4949239;28;46469;-65
2022/09/11 07:09:16;;;;;;;4.40;1.50;;;15.90;62.20;;;;;;4956057;28;46391;-65
2022/09/11 07:11:45;;;;;;;4.33;2.10;;;15.80;62.50;;;;;;4958869;28;47329;-65
2022/09/11 07:14:11;;;;;;;6.33;1.63;;;16.00;61.00;;;;;;4957451;28;46446;-65
2022/09/11 07:16:37;;;;;;;4.27;1.70;;;16.00;62.00;;;;;;4955675;28;46152;-65
2022/09/11 07:19:03;;;;;;;4.00;1.90;;;16.10;62.70;;;;;;4956146;28;46395;-65
2022/09/11 07:21:29;;;;;;;4.70;1.50;;;16.20;61.20;;;;;;4954164;28;46632;-65
2022/09/11 07:23:57;;;;;;;4.47;1.83;;;16.30;59.90;;;;;;4954106;28;46436;-66
2022/09/11 07:26:26;;;;;;;4.33;2.00;;;16.30;60.80;;;;;;4955708;28;46444;-65
2022/09/11 07:28:54;;;;;;;5.53;2.13;;;16.10;60.90;;;;;;4950396;28;46421;-65
2022/09/11 07:31:23;;;;;;;4.77;2.10;;;16.00;62.70;;;;;;4954225;28;46644;-65
2022/09/11 07:33:51;;;;;;;5.33;1.77;;;15.70;61.20;;;;;;4954627;28;46576;-64
2022/09/11 07:36:19;;;;;;;5.50;2.23;;;15.70;62.20;;;;;;4954022;28;46583;-64
2022/09/11 07:38:46;;;;;;;9.63;1.97;;;15.80;62.10;;;;;;4957115;28;46360;-64
2022/09/11 07:41:13;;;;;;;5.70;1.93;;;15.90;62.00;;;;;;4955938;28;46508;-65
2022/09/11 07:43:40;;;;;;;4.57;1.80;;;16.00;60.60;;;;;;4956807;28;46478;-64
2022/09/11 07:46:08;;;;;;;7.20;2.10;;;16.00;61.50;;;;;;4955803;28;46485;-65
2022/09/11 07:48:35;;;;;;;2.77;1.70;;;16.10;61.10;;;;;;4953181;28;46442;-65
2022/09/11 07:51:06;;;;;;;4.03;2.13;;;16.10;61.00;;;;;;4957900;28;46378;-65
2022/09/11 07:53:54;;;;;;;5.37;2.20;;;16.20;60.00;;;;;;4958451;28;46847;-65
2022/09/11 07:56:25;;;;;;;8.73;2.80;;;16.20;60.90;;;;;;4957343;28;46472;-65
2022/09/11 07:58:53;;;;;;;9.43;1.80;;;16.10;60.70;;;;;;4972575;28;46483;-65
2022/09/11 08:01:24;;;;;;;4.10;2.17;;;16.10;61.10;;;;;;4973789;28;46317;-63
2022/09/11 08:04:03;;;;;;;3.50;1.57;;;16.30;59.80;;;;;;4958044;28;46787;-64
2022/09/11 08:06:33;;;;;;;8.17;2.83;;;16.40;60.50;;;;;;4958813;28;45944;-64
2022/09/11 08:09:05;;;;;;;8.20;2.10;;;16.60;60.00;;;;;;4959749;28;46483;-64
2022/09/11 08:11:37;;;;;;;8.53;2.67;;;16.80;59.60;;;;;;4942331;28;46762;-63
2022/09/11 08:14:03;;;;;;;5.20;2.40;;;16.90;57.90;;;;;;4964323;28;46427;-65
2022/09/11 08:16:29;;;;;;;4.70;2.20;;;16.90;59.00;;;;;;4974208;28;45957;-63
2022/09/11 08:18:56;;;;;;;6.03;2.70;;;16.90;59.00;;;;;;4975052;28;46898;-65
2022/09/11 08:21:22;;;;;;;5.10;2.40;;;17.00;58.90;;;;;;4973343;28;47749;-65
2022/09/11 08:23:48;;;;;;;6.63;2.53;;;17.20;57.40;;;;;;4962564;28;45972;-64
2022/09/11 08:26:23;;;;;;;8.50;2.27;;;17.20;58.30;;;;;;4974314;28;46476;-65
2022/09/11 08:28:51;;;;;;;10.63;2.53;;;17.20;58.30;;;;;;4958475;28;46494;-65
2022/09/11 08:31:19;;;;;;;4.67;2.80;;;17.00;58.20;;;;;;4958381;28;46478;-65
2022/09/11 08:33:44;;;;;;;5.90;3.03;;;16.90;57.20;;;;;;4957556;28;46194;-65
2022/09/11 08:36:13;;;;;;;7.63;3.27;;;16.90;58.10;;;;;;4958185;28;46403;-65
2022/09/11 08:38:39;;;;;;;5.73;2.20;;;16.80;58.00;;;;;;4961861;28;46494;-66
2022/09/11 08:41:40;;;;;;;5.80;2.10;;;16.90;58.00;;;;;;4977865;28;46961;-65
2022/09/11 08:44:09;;;;;;;6.57;2.90;;;16.80;56.80;;;;;;4962066;28;46476;-65
2022/09/11 08:46:39;;;;;;;7.90;2.97;;;16.70;57.80;;;;;;4960904;28;46438;-65
2022/09/11 08:49:23;;;;;;;6.53;3.17;;;16.60;57.70;;;;;;4961587;28;46443;-65
2022/09/11 08:51:51;;;;;;;5.17;2.70;;;16.50;58.60;;;;;;4962488;28;47024;-65
2022/09/11 08:54:37;;;;;;;6.10;2.97;;;16.40;58.00;;;;;;4960917;28;45844;-64
2022/09/11 08:57:15;;;;;;;6.57;3.90;;;16.30;58.80;;;;;;4962260;28;46374;-66
2022/09/11 09:00:15;;;;;;;4.40;3.03;;;16.30;59.00;;;;;;4962380;28;47034;-64
2022/09/11 09:02:55;;;;;;;5.43;3.50;;;16.50;58.90;;;;;;4962226;28;46921;-65
2022/09/11 09:05:48;;;;;;;6.10;3.10;;;16.60;57.20;;;;;;4961027;28;46443;-65
2022/09/11 09:08:33;;;;;;;8.00;3.90;;;16.60;58.20;;;;;;4963178;28;46469;-65
2022/09/11 09:11:19;;;;;;;10.53;4.83;;;16.60;57.90;;;;;;4962004;28;45881;-66
2022/09/11 09:14:06;;;;;;;13.80;5.50;;;16.70;57.70;;;;;;4961556;28;46471;-66
2022/09/11 09:16:55;;;;;;;8.47;4.40;;;16.70;58.30;;;;;;4962099;28;46555;-66
2022/09/11 09:19:35;;;;;;;7.47;3.20;;;16.90;58.10;;;;;;4961514;28;46348;-66
2022/09/11 09:22:15;;;;;;;8.70;3.90;;;17.10;58.20;;;;;;4964410;28;46412;-66
2022/09/11 09:24:48;;;;;;;11.60;3.70;;;17.10;56.70;;;;;;4961109;28;46193;-66
2022/09/11 09:27:18;;;;;;;6.67;3.50;;;17.10;57.80;;;;;;4961804;28;46751;-66
2022/09/11 09:29:46;;;;;;;6.00;3.17;;;17.10;57.50;;;;;;4960186;28;46705;-66
2022/09/11 09:32:19;;;;;;;6.27;3.20;;;17.00;58.10;;;;;;4961886;28;46487;-65
2022/09/11 09:34:50;;;;;;;5.60;3.40;;;17.00;57.10;;;;;;4962243;28;46091;-64
2022/09/11 09:37:22;;;;;;;8.40;3.77;;;16.90;58.00;;;;;;4959350;28;46502;-65
2022/09/11 09:39:49;;;;;;;5.90;4.27;;;16.90;58.20;;;;;;4959182;28;46444;-64
2022/09/11 09:42:31;;;;;;;7.33;3.87;;;16.90;58.20;;;;;;4961789;28;45857;-65
2022/09/11 09:45:12;;;;;;;6.27;3.90;;;17.00;57.10;;;;;;4959838;28;46803;-64
2022/09/11 09:47:43;;;;;;;6.63;4.10;;;16.90;58.20;;;;;;4960486;28;46398;-65
2022/09/11 09:50:27;;;;;;;7.87;4.50;;;16.80;59.00;;;;;;4960272;28;45784;-65
2022/09/11 09:53:01;;;;;;;13.53;4.57;;;16.80;59.10;;;;;;4962659;28;46521;-65
2022/09/11 09:55:27;;;;;;;5.20;3.60;;;16.70;58.40;;;;;;4960866;28;47243;-65
2022/09/11 09:57:53;;;;;;;8.50;4.40;;;16.80;59.30;;;;;;4959879;28;46498;-65
2022/09/11 10:00:19;;;;;;;9.20;3.60;;;17.00;58.70;;;;;;4960325;28;46905;-66
2022/09/11 10:02:48;;;;;;;7.40;3.43;;;17.20;58.30;;;;;;4960866;28;46428;-65
2022/09/11 10:05:38;;;;;;;7.03;3.90;;;17.40;57.40;;;;;;4961565;28;46534;-66
2022/09/11 10:08:06;;;;;;;7.10;4.13;;;17.50;58.60;;;;;;4960919;28;46699;-65
2022/09/11 10:10:35;;;;;;;8.47;3.93;;;17.60;58.30;;;;;;4962074;28;46460;-66
2022/09/11 10:13:21;;;;;;;6.37;3.37;;;17.80;57.80;;;;;;4962039;28;46672;-65
2022/09/11 10:16:00;;;;;;;6.43;3.83;;;18.30;56.20;;;;;;4961355;28;46404;-65
2022/09/11 10:18:31;;;;;;;7.07;3.37;;;18.40;56.10;;;;;;4960740;28;46383;-65
2022/09/11 10:21:12;;;;;;;7.90;3.60;;;18.80;55.50;;;;;;4961576;28;46368;-65
2022/09/11 10:23:57;;;;;;;4.30;2.93;;;18.60;53.70;;;;;;4960331;28;46551;-65
2022/09/11 10:26:32;;;;;;;5.73;3.40;;;18.60;54.60;;;;;;4960589;28;47182;-65
2022/09/11 10:29:14;;;;;;;7.63;3.70;;;18.60;54.60;;;;;;4959689;28;46443;-65
2022/09/11 10:31:47;;;;;;;6.23;3.60;;;18.60;54.90;;;;;;4961211;28;46409;-64
2022/09/11 10:34:18;;;;;;;5.20;3.00;;;18.80;52.70;;;;;;4960603;28;46921;-65
2022/09/11 10:37:06;;;;;;;5.17;3.40;;;18.80;53.20;;;;;;4960502;28;46399;-65
2022/09/11 10:39:35;;;;;;;7.03;3.70;;;19.00;53.50;;;;;;4961104;28;46616;-65
2022/09/11 10:42:21;;;;;;;5.20;3.40;;;19.10;53.20;;;;;;4962830;28;46348;-67
2022/09/11 10:44:50;;;;;;;7.90;3.60;;;19.00;52.00;;;;;;4960078;28;45782;-65
2022/09/11 10:47:27;;;;;;;7.53;3.20;;;19.00;53.20;;;;;;4959106;28;46477;-66
2022/09/11 10:50:16;;;;;;;4.30;3.47;;;19.20;52.70;;;;;;4960636;28;46223;-66
2022/09/11 10:52:57;;;;;;;5.47;4.07;;;19.60;51.90;;;;;;4961082;28;46406;-66
2022/09/11 10:55:31;;;;;;;7.73;4.10;;;20.00;49.60;;;;;;4958557;28;46628;-66
2022/09/11 10:58:04;;;;;;;7.13;3.80;;;20.20;50.30;;;;;;4959184;28;46439;-66
2022/09/11 11:00:30;;;;;;;9.50;3.80;;;20.60;50.00;;;;;;4958921;28;45877;-66
2022/09/11 11:03:11;;;;;;;4.80;3.70;;;20.50;49.90;;;;;;4959906;28;46492;-65
2022/09/11 11:06:05;;;;;;;8.07;3.83;;;20.80;48.10;;;;;;4960127;28;46474;-66
2022/09/11 11:08:57;;;;;;;8.20;3.30;;;20.90;48.50;;;;;;4959541;28;47015;-66
2022/09/11 11:11:54;;;;;;;6.00;3.37;;;21.00;48.50;;;;;;4959077;28;46484;-65
2022/09/11 11:14:36;;;;;;;8.80;3.27;;;20.90;45.70;;;;;;4959698;28;46432;-66
2022/09/11 11:17:39;;;;;;;10.87;4.17;;;20.80;47.10;;;;;;4959297;28;46479;-66
2022/09/11 11:20:15;;;;;;;4.27;3.40;;;20.80;47.30;;;;;;4959703;28;46461;-66
2022/09/11 11:22:44;;;;;;;6.77;3.60;;;20.90;47.40;;;;;;4973798;28;46479;-66
2022/09/11 11:25:41;;;;;;;5.57;3.53;;;21.50;45.20;;;;;;4958744;28;46211;-66
2022/09/11 11:28:21;;;;;;;3.97;2.90;;;21.70;45.30;;;;;;4958133;28;46626;-66
2022/09/11 11:30:56;;;;;;;4.33;3.03;;;21.70;44.80;;;;;;4958711;28;47972;-66
2022/09/11 11:33:50;;;;;;;6.77;3.50;;;20.90;43.70;;;;;;4957941;28;46508;-66
2022/09/11 11:36:24;;;;;;;7.53;3.27;;;20.90;44.80;;;;;;4959134;28;46409;-66
2022/09/11 11:39:25;;;;;;;5.63;2.93;;;21.20;44.40;;;;;;4958731;28;46938;-66
2022/09/11 11:42:03;;;;;;;5.60;3.20;;;21.50;43.70;;;;;;4957047;28;46407;-65
2022/09/11 11:44:38;;;;;;;5.23;3.00;;;21.80;41.10;;;;;;4959096;28;46463;-65
2022/09/11 11:47:08;;;;;;;6.80;2.70;;;21.70;41.50;;;;;;4959123;28;46482;-65
2022/09/11 11:49:44;;;;;;;3.90;2.50;;;21.40;40.30;;;;;;4959479;28;46388;-65
2022/09/11 11:52:39;;;;;;;4.57;3.20;;;21.40;40.00;;;;;;4959098;28;46534;-66
2022/09/11 11:55:25;;;;;;;8.90;3.40;;;21.30;39.40;;;;;;4962069;28;46413;-65
2022/09/11 11:58:03;;;;;;;5.07;2.67;;;21.20;40.50;;;;;;4957162;28;45850;-63
2022/09/11 12:00:37;;;;;;;3.60;2.70;;;20.70;40.20;;;;;;4958927;28;47198;-66
2022/09/11 12:03:31;;;;;;;3.73;2.50;;;20.60;42.20;;;;;;4958138;28;47276;-64
2022/09/11 12:05:57;;;;;;;4.33;2.50;;;20.70;39.20;;;;;;4959003;28;46751;-66
2022/09/11 12:08:22;;;;;;;3.67;2.30;;;20.80;39.70;;;;;;4960559;28;46523;-66
2022/09/11 12:10:59;;;;;;;2.80;1.53;;;20.90;39.10;;;;;;4958357;28;46614;-66
2022/09/11 12:13:32;;;;;;;5.43;2.40;;;20.90;39.00;;;;;;4958736;28;47066;-66
2022/09/11 12:16:03;;;;;;;3.40;2.03;;;20.70;37.70;;;;;;4958356;28;46415;-66
2022/09/11 12:18:30;;;;;;;3.00;1.90;;;20.30;38.70;;;;;;4958004;28;46440;-66
2022/09/11 12:21:23;;;;;;;2.90;2.13;;;20.30;38.80;;;;;;4959902;28;45951;-66
2022/09/11 12:23:49;;;;;;;4.03;2.20;;;20.70;37.20;;;;;;4958873;28;47020;-66
2022/09/11 12:26:21;;;;;;;3.67;2.10;;;20.70;38.10;;;;;;4958844;28;46428;-66
2022/09/11 12:28:47;;;;;;;4.00;2.00;;;20.70;37.90;;;;;;4957943;28;45809;-66
2022/09/11 12:31:17;;;;;;;3.00;1.97;;;20.80;37.90;;;;;;4958965;28;46742;-66
2022/09/11 12:33:48;;;;;;;3.37;1.90;;;21.00;36.30;;;;;;4958592;28;47157;-66
2022/09/11 12:36:35;;;;;;;4.60;2.60;;;21.00;37.40;;;;;;4958289;28;46408;-66
2022/09/11 12:39:24;;;;;;;4.43;2.50;;;20.90;37.40;;;;;;4957292;28;46455;-67
2022/09/11 12:41:50;;;;;;;4.57;2.70;;;20.80;37.90;;;;;;4957735;28;46536;-67
2022/09/11 12:44:45;;;;;;;3.60;2.37;;;20.70;38.80;;;;;;4956215;28;46558;-66
2022/09/11 12:47:22;;;;;;;4.80;2.77;;;20.70;40.00;;;;;;4957935;28;45936;-66
2022/09/11 12:50:17;;;;;;;8.23;2.73;;;20.90;39.70;;;;;;4958265;28;46505;-66
2022/09/11 12:52:42;;;;;;;3.50;1.97;;;21.50;38.00;;;;;;4959056;28;46466;-67
2022/09/11 12:55:34;;;;;;;3.43;1.80;;;21.90;35.40;;;;;;4958139;28;46163;-67
2022/09/11 12:58:03;;;;;;;4.00;1.97;;;22.20;36.10;;;;;;4959467;28;46494;-65
2022/09/11 13:00:37;;;;;;;4.83;2.27;;;22.40;36.10;;;;;;4957500;28;46540;-66
2022/09/11 13:03:05;;;;;;;3.60;2.40;;;22.30;34.70;;;;;;4958209;28;46411;-65
2022/09/11 13:05:36;;;;;;;4.73;2.37;;;22.20;34.40;;;;;;4957508;28;46469;-65
2022/09/11 13:08:16;;;;;;;3.93;2.57;;;22.00;35.90;;;;;;4957283;28;46438;-66
2022/09/11 13:10:41;;;;;;;4.57;2.40;;;21.90;35.80;;;;;;4973544;28;46213;-66